createdAt,value
2019-04-20T00:00:58.529Z,102377.62
2019-04-20T00:05:53.225Z,102376.74
2019-04-20T00:10:58.040Z,102370.91
2019-04-20T00:15:43.341Z,102378.54
2019-04-20T00:20:40.737Z,102371.33
2019-04-20T00:25:54.797Z,102368.77
2019-04-20T00:31:04.228Z,102377.45
2019-04-20T00:35:38.221Z,102369.98
2019-04-20T00:40:32.702Z,102374.56
2019-04-20T00:45:31.643Z,102374.81
2019-04-20T00:50:34.333Z,102380.19
2019-04-20T00:55:19.091Z,102376.88
2019-04-20T01:00:35.631Z,102381.16
2019-04-20T01:05:43.248Z,102376.23
2019-04-20T01:10:23.677Z,102377.20
2019-04-20T01:15:30.160Z,102379.30
2019-04-20T01:20:14.074Z,102387.90
2019-04-20T01:25:16.657Z,102378.54
2019-04-20T01:30:17.413Z,102386.11
2019-04-20T01:35:22.723Z,102391.91
2019-04-20T01:40:03.954Z,102393.06
2019-04-20T01:44:57.369Z,102391.80
2019-04-20T01:49:59.826Z,102403.67
2019-04-20T01:55:11.465Z,102402.65
2019-04-20T01:59:59.420Z,102397.94
2019-04-20T02:04:48.734Z,102403.77
2019-04-20T02:09:48.610Z,102405.19
2019-04-20T02:14:43.672Z,102409.87
2019-04-20T02:19:52.629Z,102415.39
2019-04-20T02:24:29.966Z,102414.09
2019-04-20T02:29:48.880Z,102413.14
2019-04-20T02:34:59.282Z,102417.69
2019-04-20T02:45:10.552Z,102407.53
2019-04-20T02:50:14.988Z,102408.47
2019-04-20T02:54:53.655Z,102413.02
2019-04-20T03:00:01.048Z,102415.17
2019-04-20T03:04:28.088Z,102420.47
2019-04-20T03:09:32.531Z,102415.00
2019-04-20T03:14:21.757Z,102421.80
2019-04-20T03:19:18.690Z,102425.86
2019-04-20T03:24:26.716Z,102425.56
2019-04-20T03:29:11.642Z,102421.16
2019-04-20T03:34:38.247Z,102422.44
2019-04-20T03:39:03.703Z,102429.39
2019-04-20T03:43:43.560Z,102426.54
2019-04-20T03:48:54.842Z,102430.23
2019-04-20T03:54:12.168Z,102430.77
2019-04-20T03:59:19.505Z,102430.84
2019-04-20T04:04:27.184Z,102429.86
2019-04-20T04:09:15.040Z,102432.48
2019-04-20T04:13:56.574Z,102436.91
2019-04-20T04:19:02.493Z,102434.19
2019-04-20T04:24:02.183Z,102438.47
2019-04-20T04:29:08.321Z,102437.66
2019-04-20T04:33:59.703Z,102447.56
2019-04-20T04:39:03.883Z,102441.95
2019-04-20T04:43:49.823Z,102447.68
2019-04-20T04:48:34.444Z,102450.54
2019-04-20T04:53:36.725Z,102455.78
2019-04-20T04:58:19.665Z,102457.80
2019-04-20T05:03:28.175Z,102464.04
2019-04-20T05:08:21.234Z,102465.81
2019-04-20T05:13:07.148Z,102465.59
2019-04-20T05:18:20.668Z,102461.87
2019-04-20T05:23:17.602Z,102463.58
2019-04-20T05:28:32.309Z,102462.14
2019-04-20T05:33:25.468Z,102467.14
2019-04-20T05:38:39.257Z,102474.91
2019-04-20T05:43:30.531Z,102467.66
2019-04-20T05:48:20.529Z,102460.94
2019-04-20T05:53:30.566Z,102467.44
2019-04-20T05:58:24.615Z,102464.15
2019-04-20T06:03:12.987Z,102464.18
2019-04-20T06:08:20.399Z,102468.41
2019-04-20T06:13:14.751Z,102473.23
2019-04-20T06:18:16.339Z,102475.83
2019-04-20T06:23:33.261Z,102476.99
2019-04-20T06:28:22.023Z,102472.13
2019-04-20T06:34:19.627Z,102477.08
2019-04-20T06:39:06.334Z,102481.69
2019-04-20T06:43:57.885Z,102481.91
2019-04-20T06:48:51.606Z,102487.66
2019-04-20T06:53:46.850Z,102488.82
2019-04-20T06:58:43.499Z,102492.75
2019-04-20T07:08:53.194Z,102487.55
2019-04-20T07:13:22.091Z,102489.23
2019-04-20T07:18:31.162Z,102480.50
2019-04-20T07:28:24.264Z,102478.14
2019-04-20T07:33:15.711Z,102476.15
2019-04-20T07:38:27.909Z,102479.67
2019-04-20T07:43:02.849Z,102475.53
2019-04-20T07:48:07.043Z,102484.78
2019-04-20T07:52:46.266Z,102488.06
2019-04-20T07:57:48.855Z,102484.45
2019-04-20T08:03:13.057Z,102484.94
2019-04-20T08:07:53.366Z,102475.45
2019-04-20T08:13:02.317Z,102472.48
2019-04-20T08:18:02.988Z,102463.35
2019-04-20T08:22:53.487Z,102471.45
2019-04-20T08:27:29.744Z,102462.03
2019-04-20T08:32:59.531Z,102458.45
2019-04-20T08:38:14.863Z,102462.80
2019-04-20T08:43:03.542Z,102462.67
2019-04-20T08:47:57.154Z,102465.95
2019-04-20T08:57:22.603Z,102446.32
2019-04-20T09:02:18.743Z,102446.95
2019-04-20T09:07:19.552Z,102452.39
2019-04-20T09:12:24.406Z,102444.66
2019-04-20T09:17:23.088Z,102446.41
2019-04-20T09:22:42.854Z,102440.16
2019-04-20T09:27:36.241Z,102437.41
2019-04-20T09:32:39.677Z,102438.51
2019-04-20T09:37:43.064Z,102442.49
2019-04-20T09:42:19.578Z,102429.72
2019-04-20T09:47:14.151Z,102431.25
2019-04-20T09:52:21.261Z,102430.77
2019-04-20T09:57:25.451Z,102411.03
2019-04-20T10:02:13.744Z,102411.11
2019-04-20T10:07:07.751Z,102407.47
2019-04-20T10:11:59.293Z,102398.30
2019-04-20T10:16:53.856Z,102394.42
2019-04-20T10:21:48.668Z,102389.33
2019-04-20T10:26:42.841Z,102382.84
2019-04-20T10:31:42.788Z,102376.49
2019-04-20T10:36:43.832Z,102376.03
2019-04-20T10:41:46.988Z,102376.27
2019-04-20T10:46:35.071Z,102375.80
2019-04-20T10:51:29.833Z,102359.88
2019-04-20T10:56:25.316Z,102358.27
2019-04-20T11:01:19.913Z,102357.58
2019-04-20T11:06:14.508Z,102354.11
2019-04-20T11:11:14.636Z,102354.30
2019-04-20T11:16:04.548Z,102356.95
2019-04-20T11:20:59.433Z,102353.48
2019-04-20T11:25:53.527Z,102340.69
2019-04-20T11:30:48.077Z,102340.69
2019-04-20T11:35:43.695Z,102331.66
2019-04-20T11:40:39.161Z,102313.67
2019-04-20T11:45:33.222Z,102302.74
2019-04-20T11:50:27.830Z,102302.74
2019-04-20T11:55:22.410Z,102312.05
2019-04-20T12:00:25.217Z,102299.39
2019-04-20T12:05:32.419Z,102299.22
2019-04-20T12:10:22.301Z,102291.94
2019-04-20T12:15:14.834Z,102284.27
2019-04-20T12:20:10.096Z,102278.15
2019-04-20T12:25:05.946Z,102279.47
2019-04-20T12:30:00.046Z,102276.43
2019-04-20T12:34:54.147Z,102282.44
2019-04-20T12:39:49.201Z,102269.77
2019-04-20T12:44:43.808Z,102267.95
2019-04-20T12:49:37.955Z,102260.22
2019-04-20T12:54:32.323Z,102253.58
2019-04-20T12:59:27.553Z,102247.28
2019-04-20T13:04:22.662Z,102249.48
2019-04-20T13:09:16.910Z,102236.83
2019-04-20T13:14:44.428Z,102236.27
2019-04-20T13:19:39.460Z,102231.78
2019-04-20T13:24:34.682Z,102224.03
2019-04-20T13:29:29.052Z,102210.97
2019-04-20T13:34:24.391Z,102208.27
2019-04-20T13:39:19.635Z,102203.22
2019-04-20T13:44:13.915Z,102193.33
2019-04-20T13:49:09.303Z,102185.28
2019-04-20T13:54:06.276Z,102181.01
2019-04-20T13:59:01.826Z,102166.44
2019-04-20T14:04:16.794Z,102160.61
2019-04-20T14:09:11.828Z,102159.75
2019-04-20T14:14:08.282Z,102150.39
2019-04-20T14:19:02.973Z,102139.16
2019-04-20T14:23:57.219Z,102129.34
2019-04-20T14:28:51.483Z,102116.98
2019-04-20T14:33:46.748Z,102112.59
2019-04-20T14:38:43.745Z,102100.92
2019-04-20T14:43:38.111Z,102091.62
2019-04-20T14:48:34.369Z,102087.59
2019-04-20T14:53:29.490Z,102078.80
2019-04-20T14:58:39.426Z,102076.59
2019-04-20T15:03:37.326Z,102067.11
2019-04-20T15:08:32.474Z,102063.30
2019-04-20T15:13:26.790Z,102060.20
2019-04-20T15:18:23.764Z,102057.40
2019-04-20T15:23:19.906Z,102058.88
2019-04-20T15:28:14.543Z,102052.38
2019-04-20T15:33:09.237Z,102051.42
2019-04-20T15:38:04.995Z,102050.05
2019-04-20T15:43:08.292Z,102049.75
2019-04-20T15:47:56.299Z,102049.72
2019-04-20T15:52:52.704Z,102038.64
2019-04-20T15:57:46.525Z,102044.75
2019-04-20T16:03:01.177Z,102040.16
2019-04-20T16:08:00.198Z,102038.92
2019-04-20T16:13:04.587Z,102041.03
2019-04-20T16:17:51.286Z,102041.06
2019-04-20T16:22:44.795Z,102031.56
2019-04-20T16:27:38.953Z,102029.89
2019-04-20T16:32:34.279Z,102039.23
2019-04-20T16:37:28.642Z,102032.02
2019-04-20T16:42:22.745Z,102027.73
2019-04-20T16:47:16.847Z,102025.99
2019-04-20T16:52:10.914Z,102022.87
2019-04-20T16:57:07.707Z,102020.31
2019-04-20T17:02:00.835Z,102022.32
2019-04-20T17:07:16.380Z,102018.42
2019-04-20T17:12:12.060Z,102026.52
2019-04-20T17:17:07.409Z,102026.81
2019-04-20T17:22:03.460Z,102019.80
2019-04-20T17:27:19.134Z,102018.56
2019-04-20T17:32:15.878Z,102018.67
2019-04-20T17:37:10.651Z,102023.52
2019-04-20T17:42:22.234Z,102026.54
2019-04-20T17:47:22.446Z,102022.35
2019-04-20T17:52:21.903Z,102028.10
2019-04-20T17:56:54.320Z,102029.41
2019-04-20T18:02:11.820Z,102027.59
2019-04-20T18:07:10.618Z,102026.58
2019-04-20T18:11:56.410Z,102029.35
2019-04-20T18:17:19.255Z,102030.30
2019-04-20T18:22:07.680Z,102036.80
2019-04-20T18:27:26.401Z,102031.09
2019-04-20T18:32:09.337Z,102037.33
2019-04-20T18:37:07.746Z,102035.48
2019-04-20T18:42:12.215Z,102032.27
2019-04-20T18:47:21.644Z,102034.63
2019-04-20T18:51:53.573Z,102033.09
2019-04-20T18:56:50.900Z,102036.47
2019-04-20T19:01:45.471Z,102035.87
2019-04-20T19:06:39.882Z,102042.94
2019-04-20T19:11:37.514Z,102037.95
2019-04-20T19:16:46.648Z,102041.14
2019-04-20T19:21:29.052Z,102045.96
2019-04-20T19:26:23.865Z,102049.09
2019-04-20T19:31:39.735Z,102054.89
2019-04-20T19:36:27.993Z,102056.19
2019-04-20T19:41:26.634Z,102061.54
2019-04-20T19:46:39.623Z,102057.06
2019-04-20T19:51:25.520Z,102062.41
2019-04-20T19:56:10.769Z,102064.02
2019-04-20T20:00:57.787Z,102058.88
2019-04-20T20:05:54.151Z,102056.52
2019-04-20T20:10:50.481Z,102050.31
2019-04-20T20:15:45.541Z,102055.82
2019-04-20T20:20:59.508Z,102054.77
2019-04-20T20:25:42.365Z,102056.00
2019-04-20T20:30:48.096Z,102066.75
2019-04-20T20:35:32.532Z,102056.36
2019-04-20T20:40:31.135Z,102070.11
2019-04-20T20:45:31.525Z,102065.47
2019-04-20T20:50:36.433Z,102062.62
2019-04-20T20:55:25.533Z,102067.27
2019-04-20T21:00:24.062Z,102067.20
2019-04-20T21:05:06.914Z,102067.90
2019-04-20T21:10:00.970Z,102072.06
2019-04-20T21:14:55.235Z,102071.39
2019-04-20T21:20:06.385Z,102072.12
2019-04-20T21:24:50.095Z,102070.29
2019-04-20T21:29:49.265Z,102079.45
2019-04-20T21:34:43.296Z,102068.55
2019-04-20T21:39:44.188Z,102078.26
2019-04-20T21:44:37.490Z,102074.39
2019-04-20T21:49:43.642Z,102073.04
2019-04-20T21:54:25.310Z,102068.03
2019-04-20T21:59:27.276Z,102067.61
2019-04-20T22:04:16.337Z,102063.44
2019-04-20T22:09:12.706Z,102068.01
2019-04-20T22:14:11.472Z,102069.84
2019-04-20T22:19:16.213Z,102065.57
2019-04-20T22:24:09.498Z,102062.45
2019-04-20T22:28:56.313Z,102061.86
2019-04-20T22:33:50.644Z,102062.64
2019-04-20T22:39:01.280Z,102062.23
2019-04-20T22:43:54.790Z,102058.66
2019-04-20T22:48:59.406Z,102059.50
2019-04-20T22:53:56.353Z,102060.30
2019-04-20T22:58:52.774Z,102053.84
2019-04-20T23:03:37.204Z,102054.72
2019-04-20T23:08:31.156Z,102045.35
2019-04-20T23:13:29.512Z,102043.11
2019-04-20T23:18:22.426Z,102037.03
2019-04-20T23:23:21.139Z,102036.34
2019-04-20T23:28:16.758Z,102030.75
2019-04-20T23:33:09.660Z,102038.79
2019-04-20T23:38:11.217Z,102042.20
2019-04-20T23:43:17.692Z,102038.02
2019-04-20T23:48:23.658Z,102030.67
2019-04-20T23:53:33.832Z,102026.06
2019-04-20T23:58:14.394Z,102034.50
